createdAt,value
2023-08-04T00:00:00.192Z,18.44
2023-08-04T00:05:00.091Z,18.5
2023-08-04T00:10:00.130Z,18.5
2023-08-04T00:15:00.083Z,18.5
2023-08-04T00:20:00.120Z,18.5
2023-08-04T00:25:00.099Z,18.5
2023-08-04T00:30:00.164Z,18.5
2023-08-04T00:35:00.100Z,18.5
2023-08-04T00:40:00.126Z,18.56
2023-08-04T00:45:00.123Z,18.5
2023-08-04T00:50:00.127Z,18.5
2023-08-04T00:55:00.093Z,18.5
2023-08-04T01:00:00.121Z,18.56
2023-08-04T01:05:00.318Z,18.5
2023-08-04T01:10:00.162Z,18.5
2023-08-04T01:15:00.100Z,18.56
2023-08-04T01:20:00.139Z,18.56
2023-08-04T01:25:00.110Z,18.56
2023-08-04T01:30:00.137Z,18.44
2023-08-04T01:35:00.090Z,18.5
2023-08-04T01:40:00.126Z,18.5
2023-08-04T01:45:00.083Z,18.5
2023-08-04T01:50:00.152Z,18.5
2023-08-04T01:55:00.094Z,18.5
2023-08-04T02:00:00.126Z,18.44
2023-08-04T02:05:00.090Z,18.19
2023-08-04T02:10:00.132Z,17.88
2023-08-04T02:15:00.153Z,17.56
2023-08-04T02:20:00.122Z,17.25
2023-08-04T02:25:00.089Z,17.13
2023-08-04T02:30:00.147Z,17
2023-08-04T02:35:00.107Z,16.94
2023-08-04T02:40:00.156Z,16.88
2023-08-04T02:45:00.124Z,16.81
2023-08-04T02:50:00.140Z,16.81
2023-08-04T02:55:00.099Z,16.75
2023-08-04T03:00:00.196Z,16.81
2023-08-04T03:05:00.113Z,16.81
2023-08-04T03:10:00.135Z,16.88
2023-08-04T03:15:00.628Z,16.88
2023-08-04T03:20:00.117Z,16.88
2023-08-04T03:25:00.106Z,16.88
2023-08-04T03:30:00.164Z,16.94
2023-08-04T03:35:00.094Z,17
2023-08-04T03:40:00.102Z,17
2023-08-04T03:45:00.096Z,17
2023-08-04T03:50:02.164Z,17
2023-08-04T03:55:00.114Z,16.94
2023-08-04T04:00:00.142Z,16.94
2023-08-04T04:05:00.092Z,16.94
2023-08-04T04:10:00.130Z,16.88
2023-08-04T04:15:00.147Z,16.94
2023-08-04T04:20:00.138Z,17
2023-08-04T04:25:00.096Z,17.06
2023-08-04T04:30:00.164Z,17.13
2023-08-04T04:35:00.149Z,17.13
2023-08-04T04:40:00.106Z,17.19
2023-08-04T04:45:00.126Z,17.31
2023-08-04T04:50:00.138Z,17.38
2023-08-04T04:55:00.111Z,17.38
2023-08-04T05:00:00.173Z,17.44
2023-08-04T05:05:00.099Z,17.56
2023-08-04T05:10:00.121Z,17.75
2023-08-04T05:15:00.104Z,17.88
2023-08-04T05:20:00.105Z,17.88
2023-08-04T05:25:10.143Z,17.88
2023-08-04T05:30:00.197Z,17.88
2023-08-04T05:35:00.109Z,17.88
2023-08-04T05:40:00.101Z,17.81
2023-08-04T05:45:00.123Z,17.81
2023-08-04T05:50:00.156Z,17.75
2023-08-04T05:55:00.098Z,17.75
2023-08-04T06:00:00.144Z,17.75
2023-08-04T06:05:00.102Z,17.88
2023-08-04T06:10:00.177Z,18.06
2023-08-04T06:15:00.103Z,18.63
2023-08-04T06:20:00.112Z,19.5
2023-08-04T06:25:00.110Z,20.19
2023-08-04T06:30:00.173Z,20.25
2023-08-04T06:35:00.130Z,20.13
2023-08-04T06:40:00.103Z,20.19
2023-08-04T06:45:00.118Z,20.69
2023-08-04T06:50:00.254Z,21
2023-08-04T06:55:00.105Z,21.06
2023-08-04T07:00:00.238Z,21
2023-08-04T07:05:00.110Z,21.06
2023-08-04T07:10:00.197Z,20.88
2023-08-04T07:15:00.206Z,20.81
2023-08-04T07:20:00.185Z,20.81
2023-08-04T07:25:00.090Z,20.94
2023-08-04T07:30:00.229Z,20.88
2023-08-04T07:35:00.131Z,20.44
2023-08-04T07:40:00.151Z,20.19
2023-08-04T07:45:00.180Z,19.88
2023-08-04T07:50:00.174Z,19.81
2023-08-04T07:55:00.143Z,20.19
2023-08-04T08:00:00.219Z,20.81
2023-08-04T08:05:00.111Z,21.81
2023-08-04T08:10:00.138Z,22.75
2023-08-04T08:15:00.571Z,23
2023-08-04T08:20:00.133Z,22.69
2023-08-04T08:25:00.108Z,22.81
2023-08-04T08:30:00.182Z,22.44
2023-08-04T08:35:00.113Z,21.88
2023-08-04T08:40:00.106Z,21.56
2023-08-04T08:45:00.138Z,21.38
2023-08-04T08:50:00.132Z,21.56
2023-08-04T08:55:00.107Z,21.75
2023-08-04T09:00:00.201Z,21.5
2023-08-04T09:05:00.086Z,21.19
2023-08-04T09:10:00.177Z,21
2023-08-04T09:15:00.117Z,20.81
2023-08-04T09:20:00.094Z,20.69
2023-08-04T09:25:00.096Z,20.94
2023-08-04T09:30:00.144Z,22.94
2023-08-04T09:35:00.102Z,28.06
2023-08-04T09:40:00.122Z,33.88
2023-08-04T09:45:00.125Z,37.5
2023-08-04T09:50:00.214Z,39.31
2023-08-04T09:55:00.092Z,41.19
2023-08-04T10:00:00.208Z,43.13
2023-08-04T10:05:00.166Z,42.56
2023-08-04T10:10:00.111Z,39.88
2023-08-04T10:15:00.136Z,37.81
2023-08-04T10:20:00.162Z,38.94
2023-08-04T10:25:00.138Z,39.81
2023-08-04T10:30:00.207Z,40.13
2023-08-04T10:35:00.193Z,40.94
2023-08-04T10:40:00.096Z,40.44
2023-08-04T10:45:00.144Z,38.63
2023-08-04T10:50:00.226Z,40.06
2023-08-04T10:55:00.153Z,40.63
2023-08-04T11:00:00.183Z,41.44
2023-08-04T11:05:00.183Z,38.94
2023-08-04T11:10:00.138Z,38.06
2023-08-04T11:15:00.137Z,36.88
2023-08-04T11:20:00.199Z,35.06
2023-08-04T11:25:00.098Z,34.13
2023-08-04T11:30:00.138Z,33.56
2023-08-04T11:35:00.122Z,32.44
2023-08-04T11:40:00.106Z,31.5
2023-08-04T11:45:00.356Z,30.88
2023-08-04T11:50:00.215Z,33.38
2023-08-04T11:55:00.126Z,35.63
2023-08-04T12:00:00.207Z,34.81
2023-08-04T12:05:00.308Z,33.88
2023-08-04T12:10:00.137Z,32.13
2023-08-04T12:15:01.453Z,30.81
2023-08-04T12:20:00.127Z,29.69
2023-08-04T12:25:00.137Z,29.19
2023-08-04T12:30:00.213Z,29.25
2023-08-04T12:35:00.150Z,29.06
2023-08-04T12:40:00.165Z,28.75
2023-08-04T12:45:00.119Z,28.13
2023-08-04T12:50:00.281Z,27.69
2023-08-04T12:55:00.152Z,27.5
2023-08-04T13:00:00.180Z,27.38
2023-08-04T13:05:00.109Z,27.38
2023-08-04T13:10:00.173Z,26.94
2023-08-04T13:15:00.128Z,26.25
2023-08-04T13:20:00.180Z,25.69
2023-08-04T13:25:00.089Z,25.31
2023-08-04T13:30:00.172Z,24.88
2023-08-04T13:35:00.180Z,24.75
2023-08-04T13:40:00.122Z,24.81
2023-08-04T13:45:00.125Z,25.13
2023-08-04T13:50:00.186Z,25.38
2023-08-04T13:55:00.104Z,25.38
2023-08-04T14:00:00.240Z,25.38
2023-08-04T14:05:00.175Z,25.5
2023-08-04T14:10:00.129Z,25.5
2023-08-04T14:15:00.112Z,25.5
2023-08-04T14:20:00.170Z,25.38
2023-08-04T14:25:00.095Z,25.19
2023-08-04T14:30:00.185Z,24.75
2023-08-04T14:35:00.137Z,24.5
2023-08-04T14:40:00.131Z,24.19
2023-08-04T14:45:00.112Z,24.19
2023-08-04T14:50:00.190Z,24.25
2023-08-04T14:55:00.107Z,24.38
2023-08-04T15:00:00.549Z,24.44
2023-08-04T15:05:00.148Z,24.25
2023-08-04T15:10:00.229Z,24.19
2023-08-04T15:15:00.112Z,24.06
2023-08-04T15:20:00.265Z,23.94
2023-08-04T15:25:00.103Z,23.88
2023-08-04T15:30:00.192Z,24
2023-08-04T15:35:00.206Z,24.13
2023-08-04T15:40:00.115Z,24.38
2023-08-04T15:45:00.123Z,24.63
2023-08-04T15:50:00.148Z,24.88
2023-08-04T15:55:10.999Z,24.94
2023-08-04T16:00:00.181Z,24.94
2023-08-04T16:05:00.117Z,24.94
2023-08-04T16:10:00.171Z,24.75
2023-08-04T16:15:00.129Z,24.44
2023-08-04T16:20:00.177Z,24.38
2023-08-04T16:25:00.122Z,24.31
2023-08-04T16:30:00.242Z,24.25
2023-08-04T16:35:00.120Z,24.13
2023-08-04T16:40:00.128Z,24.31
2023-08-04T16:45:00.183Z,24.25
2023-08-04T16:50:00.421Z,24.31
2023-08-04T16:55:00.120Z,24.56
2023-08-04T17:00:00.257Z,24.5
2023-08-04T17:05:00.096Z,24.25
2023-08-04T17:10:00.158Z,24.19
2023-08-04T17:15:00.151Z,24.19
2023-08-04T17:20:00.114Z,24
2023-08-04T17:25:00.119Z,23.81
2023-08-04T17:30:00.189Z,23.63
2023-08-04T17:35:00.154Z,23.5
2023-08-04T17:40:00.155Z,23.31
2023-08-04T17:45:00.152Z,23.13
2023-08-04T17:50:00.140Z,22.75
2023-08-04T17:55:00.134Z,22.56
2023-08-04T18:00:00.245Z,22.38
2023-08-04T18:05:00.155Z,22.25
2023-08-04T18:10:00.136Z,22.06
2023-08-04T18:15:00.133Z,21.81
2023-08-04T18:20:00.107Z,21.69
2023-08-04T18:25:00.105Z,21.5
2023-08-04T18:30:00.220Z,21.38
2023-08-04T18:35:00.114Z,21.25
2023-08-04T18:40:00.185Z,21.13
2023-08-04T18:45:00.132Z,21
2023-08-04T18:50:00.149Z,20.88
2023-08-04T18:55:00.160Z,20.81
2023-08-04T19:00:00.176Z,20.69
2023-08-04T19:05:00.097Z,20.63
2023-08-04T19:10:00.145Z,20.5
2023-08-04T19:15:00.128Z,20.38
2023-08-04T19:20:00.129Z,20.44
2023-08-04T19:25:00.134Z,20.44
2023-08-04T19:30:00.187Z,20.31
2023-08-04T19:35:00.122Z,20.31
2023-08-04T19:40:00.161Z,20.31
2023-08-04T19:45:00.094Z,20.25
2023-08-04T19:50:00.168Z,20.31
2023-08-04T19:55:00.149Z,20.31
2023-08-04T20:00:00.230Z,20.25
2023-08-04T20:05:00.112Z,20.13
2023-08-04T20:10:00.450Z,20.13
2023-08-04T20:15:00.146Z,20.13
2023-08-04T20:20:00.129Z,20.06
2023-08-04T20:25:00.117Z,20.06
2023-08-04T20:30:00.176Z,20.06
2023-08-04T20:35:00.108Z,20
2023-08-04T20:40:00.195Z,20
2023-08-04T20:45:00.113Z,20.06
2023-08-04T20:50:00.145Z,20.06
2023-08-04T20:55:00.152Z,20.06
2023-08-04T21:00:00.247Z,20
2023-08-04T21:05:00.171Z,20
2023-08-04T21:10:00.160Z,19.94
2023-08-04T21:15:00.099Z,19.94
2023-08-04T21:20:00.210Z,19.88
2023-08-04T21:25:00.117Z,19.88
2023-08-04T21:30:00.156Z,19.88
2023-08-04T21:35:00.133Z,19.88
2023-08-04T21:40:00.158Z,19.75
2023-08-04T21:45:00.123Z,19.75
2023-08-04T21:50:00.168Z,19.75
2023-08-04T21:55:00.124Z,19.69
2023-08-04T22:00:00.276Z,19.69
2023-08-04T22:05:00.093Z,19.69
2023-08-04T22:10:00.139Z,19.63
2023-08-04T22:15:00.154Z,19.63
2023-08-04T22:20:00.168Z,19.63
2023-08-04T22:25:00.178Z,19.56
2023-08-04T22:30:00.214Z,19.5
2023-08-04T22:35:00.162Z,19.44
2023-08-04T22:40:00.161Z,19.25
2023-08-04T22:45:00.170Z,19.13
2023-08-04T22:50:00.199Z,18.94
2023-08-04T22:55:00.120Z,18.81
2023-08-04T23:00:00.170Z,18.63
2023-08-04T23:05:00.118Z,18.44
2023-08-04T23:10:00.219Z,18.31
2023-08-04T23:15:00.080Z,18.25
2023-08-04T23:20:00.124Z,18.31
2023-08-04T23:25:00.115Z,18.25
2023-08-04T23:30:00.182Z,18.31
2023-08-04T23:35:00.119Z,18.44
2023-08-04T23:40:00.146Z,18.44
2023-08-04T23:45:00.158Z,18.5
2023-08-04T23:50:00.164Z,18.5
2023-08-04T23:55:00.135Z,18.5
